Time;durP1;ratioP1;P1;durP2;ratioP2;P2;SDS_P1;SDS_P2;PMS_P1;PMS_P2;Temp;Humidity;BMP_temperature;BMP_pressure;BME280_temperature;BME280_humidity;BME280_pressure;Samples;Min_cycle;Max_cycle;Signal;HPM_P1;HPM_P2
2023/07/10 00:02:02;;;;;;;166.37;65.50;;;;;;;;;;4992777;28;20567;-65
2023/07/10 00:04:28;;;;;;;47.43;30.37;;;;;;;;;;4993203;28;20042;-65
2023/07/10 00:06:54;;;;;;;56.37;31.93;;;;;;;;;;4991255;28;20042;-65
2023/07/10 00:09:20;;;;;;;64.27;39.47;;;;;;;;;;4993207;28;20096;-64
2023/07/10 00:11:46;;;;;;;75.97;40.50;;;;;;;;;;4992788;28;20520;-65
2023/07/10 00:14:17;;;;;;;92.27;47.90;;;;;;;;;;4992989;28;20458;-64
2023/07/10 00:16:43;;;;;;;65.37;40.57;;;;;;;;;;4991604;28;20499;-64
2023/07/10 00:19:13;;;;;;;54.30;31.83;;;;;;;;;;4992233;28;20038;-64
2023/07/10 00:21:40;;;;;;;61.87;39.43;;;;;;;;;;4991921;28;20058;-65
2023/07/10 00:24:06;;;;;;;119.93;52.07;;;;;;;;;;4992144;28;20052;-64
2023/07/10 00:26:32;;;;;;;84.90;48.27;;;;;;;;;;4991778;28;20057;-64
2023/07/10 00:28:59;;;;;;;89.60;49.53;;;;;;;;;;4991919;28;20043;-64
2023/07/10 00:31:25;;;;;;;100.47;49.73;;;;;;;;;;4992353;28;20050;-64
2023/07/10 00:33:52;;;;;;;131.93;60.23;;;;;;;;;;4991844;28;20058;-65
2023/07/10 00:36:35;;;;;;;71.23;42.53;;;;;;;;;;4990912;28;20042;-64
2023/07/10 00:39:05;;;;;;;101.15;50.60;;;;;;;;;;4991692;28;20108;-64
2023/07/10 00:41:34;;;;;;;103.50;51.57;;;;;;;;;;4990990;28;20047;-64
2023/07/10 00:44:03;;;;;;;215.57;76.47;;;;;;;;;;4991308;28;20467;-64
2023/07/10 00:46:34;;;;;;;176.57;68.27;;;;;;;;;;4991245;28;20446;-64
2023/07/10 00:49:05;;;;;;;95.53;47.83;;;;;;;;;;4991378;28;20054;-64
2023/07/10 00:51:38;;;;;;;101.43;49.37;;;;;;;;;;4990900;28;20507;-64
2023/07/10 00:54:05;;;;;;;94.38;54.08;;;;;;;;;;4990421;28;20479;-64
2023/07/10 00:56:39;;;;;;;103.93;56.00;;;;;;;;;;4990066;28;20050;-64
2023/07/10 00:59:22;;;;;;;169.10;72.60;;;;;;;;;;4990640;28;20131;-64
2023/07/10 01:02:06;;;;;;;94.90;50.78;;;;;;;;;;4990588;28;20096;-64
2023/07/10 01:04:32;;;;;;;114.17;57.83;;;;;;;;;;4991370;28;20523;-65
2023/07/10 01:06:58;;;;;;;130.57;61.37;;;;;;;;;;4989999;28;20081;-64
2023/07/10 01:09:24;;;;;;;55.80;38.80;;;;;;;;;;4991016;28;20038;-65
2023/07/10 01:11:50;;;;;;;110.60;59.03;;;;;;;;;;4990801;28;20046;-64
2023/07/10 01:14:17;;;;;;;121.30;64.47;;;;;;;;;;4990924;28;20053;-64
2023/07/10 01:16:43;;;;;;;102.30;58.83;;;;;;;;;;4990638;28;20049;-64
2023/07/10 01:19:15;;;;;;;130.30;64.13;;;;;;;;;;4990371;28;20508;-64
2023/07/10 01:21:41;;;;;;;163.47;76.00;;;;;;;;;;4990266;28;20042;-64
2023/07/10 01:24:07;;;;;;;83.17;47.73;;;;;;;;;;4990496;28;20046;-63
2023/07/10 01:26:34;;;;;;;101.47;54.33;;;;;;;;;;4972665;28;20446;-64
2023/07/10 01:29:01;;;;;;;99.97;56.03;;;;;;;;;;4989867;28;20048;-64
2023/07/10 01:31:28;;;;;;;158.77;72.40;;;;;;;;;;4990512;28;20829;-64
2023/07/10 01:33:58;;;;;;;138.23;67.57;;;;;;;;;;4990339;28;20054;-64
2023/07/10 01:36:26;;;;;;;127.33;63.80;;;;;;;;;;4989814;28;20504;-64
2023/07/10 01:39:02;;;;;;;169.50;73.80;;;;;;;;;;4990178;28;20555;-64
2023/07/10 01:41:30;;;;;;;178.00;74.57;;;;;;;;;;4988475;28;20046;-64
2023/07/10 01:43:56;;;;;;;106.13;59.87;;;;;;;;;;4989992;28;20045;-64
2023/07/10 01:46:23;;;;;;;96.40;56.43;;;;;;;;;;4972781;28;20042;-64
2023/07/10 01:48:51;;;;;;;108.60;59.70;;;;;;;;;;4989744;28;20524;-64
2023/07/10 01:51:18;;;;;;;115.93;59.43;;;;;;;;;;4989291;28;20083;-64
2023/07/10 01:53:45;;;;;;;121.10;60.83;;;;;;;;;;4990313;28;20042;-64
2023/07/10 01:56:12;;;;;;;123.67;64.17;;;;;;;;;;4989383;28;20493;-64
2023/07/10 01:58:38;;;;;;;197.17;79.47;;;;;;;;;;4990030;28;20047;-64
2023/07/10 02:01:04;;;;;;;116.93;62.40;;;;;;;;;;4989567;28;20030;-64
2023/07/10 02:03:30;;;;;;;129.83;64.90;;;;;;;;;;4989491;28;20082;-64
2023/07/10 02:05:56;;;;;;;93.17;54.13;;;;;;;;;;4988581;28;20046;-64
2023/07/10 02:08:22;;;;;;;80.13;50.60;;;;;;;;;;4990236;28;20070;-64
2023/07/10 02:10:48;;;;;;;102.03;56.73;;;;;;;;;;4988738;28;20042;-64
2023/07/10 02:13:13;;;;;;;131.13;65.43;;;;;;;;;;4989934;28;20046;-64
2023/07/10 02:15:40;;;;;;;96.93;51.57;;;;;;;;;;4989894;28;20415;-64
2023/07/10 02:18:06;;;;;;;181.67;76.53;;;;;;;;;;4989759;28;20038;-64
2023/07/10 02:20:32;;;;;;;175.73;75.20;;;;;;;;;;4988774;28;20135;-65
2023/07/10 02:22:58;;;;;;;114.70;57.47;;;;;;;;;;4989638;28;20060;-64
2023/07/10 02:25:24;;;;;;;137.90;65.70;;;;;;;;;;4989579;28;20046;-64
2023/07/10 02:27:50;;;;;;;109.07;58.60;;;;;;;;;;4989780;28;20042;-64
2023/07/10 02:30:17;;;;;;;118.70;61.13;;;;;;;;;;4988498;28;20054;-64
2023/07/10 02:32:43;;;;;;;237.60;89.90;;;;;;;;;;4989240;28;20420;-63
2023/07/10 02:35:09;;;;;;;138.00;64.00;;;;;;;;;;4988266;28;20534;-64
2023/07/10 02:37:35;;;;;;;149.77;70.23;;;;;;;;;;4988868;28;20401;-64
2023/07/10 02:40:03;;;;;;;118.30;59.30;;;;;;;;;;4987949;28;20042;-64
2023/07/10 02:42:29;;;;;;;105.10;60.50;;;;;;;;;;4988823;28;20058;-64
2023/07/10 02:44:55;;;;;;;225.07;91.60;;;;;;;;;;4989105;28;20496;-64
2023/07/10 02:47:21;;;;;;;129.10;66.20;;;;;;;;;;4988768;28;20081;-64
2023/07/10 02:49:47;;;;;;;187.37;85.27;;;;;;;;;;4988927;28;20085;-64
2023/07/10 02:52:13;;;;;;;199.37;84.37;;;;;;;;;;4988829;28;20500;-64
2023/07/10 02:54:39;;;;;;;113.47;63.00;;;;;;;;;;4988987;28;20053;-64
2023/07/10 02:57:05;;;;;;;183.93;82.03;;;;;;;;;;4989372;28;20089;-63
2023/07/10 02:59:31;;;;;;;129.17;66.10;;;;;;;;;;4988812;28;20432;-64
2023/07/10 03:01:59;;;;;;;175.80;78.97;;;;;;;;;;4987482;28;20049;-64
2023/07/10 03:04:26;;;;;;;117.33;64.43;;;;;;;;;;4989065;28;20057;-64
2023/07/10 03:06:52;;;;;;;116.77;65.73;;;;;;;;;;4988936;28;20088;-64
2023/07/10 03:09:18;;;;;;;149.30;76.37;;;;;;;;;;4988334;28;20056;-64
2023/07/10 03:11:44;;;;;;;123.33;66.50;;;;;;;;;;4988695;28;20057;-64
2023/07/10 03:14:10;;;;;;;133.87;71.27;;;;;;;;;;4988953;28;20057;-64
2023/07/10 03:16:36;;;;;;;176.13;79.60;;;;;;;;;;4989122;28;20042;-64
2023/07/10 03:19:02;;;;;;;167.07;74.30;;;;;;;;;;4988802;28;20051;-64
2023/07/10 03:21:28;;;;;;;102.93;58.57;;;;;;;;;;4987957;28;20393;-64
2023/07/10 03:23:54;;;;;;;89.70;55.47;;;;;;;;;;4988956;28;20081;-64
2023/07/10 03:26:20;;;;;;;80.20;49.13;;;;;;;;;;4989252;28;20124;-64
2023/07/10 03:28:46;;;;;;;111.10;60.30;;;;;;;;;;4988663;28;20209;-64
2023/07/10 03:31:12;;;;;;;82.03;50.17;;;;;;;;;;4987894;28;20472;-63
2023/07/10 03:33:38;;;;;;;71.53;44.57;;;;;;;;;;4987877;28;20050;-64
2023/07/10 03:36:06;;;;;;;52.63;35.67;;;;;;;;;;4988814;28;20132;-63
2023/07/10 03:38:32;;;;;;;70.03;42.63;;;;;;;;;;4988973;28;20042;-64
2023/07/10 03:40:58;;;;;;;47.93;32.60;;;;;;;;;;4987783;28;20082;-64
2023/07/10 03:43:25;;;;;;;60.70;37.23;;;;;;;;;;4970996;28;20512;-63
2023/07/10 03:45:51;;;;;;;69.97;41.87;;;;;;;;;;4988256;28;20053;-64
2023/07/10 03:48:18;;;;;;;70.50;40.17;;;;;;;;;;4988189;28;20480;-63
2023/07/10 03:50:44;;;;;;;46.43;30.07;;;;;;;;;;4988175;28;20531;-63
2023/07/10 03:53:10;;;;;;;75.40;41.53;;;;;;;;;;4988477;28;20057;-63
2023/07/10 03:55:36;;;;;;;141.90;55.13;;;;;;;;;;4987669;28;20538;-64
2023/07/10 03:58:02;;;;;;;37.47;25.10;;;;;;;;;;4987894;28;20101;-64
2023/07/10 04:00:28;;;;;;;36.70;24.77;;;;;;;;;;4987789;28;20046;-63
2023/07/10 04:02:55;;;;;;;50.83;29.73;;;;;;;;;;4970303;28;20061;-64
2023/07/10 04:05:21;;;;;;;39.73;25.10;;;;;;;;;;4971500;28;20053;-64
2023/07/10 04:07:47;;;;;;;34.83;23.07;;;;;;;;;;4987673;28;20050;-64
2023/07/10 04:10:13;;;;;;;62.60;32.17;;;;;;;;;;4988194;28;20046;-64
2023/07/10 04:12:43;;;;;;;20.83;15.83;;;;;;;;;;4987702;28;20338;-64
2023/07/10 04:15:09;;;;;;;29.33;20.30;;;;;;;;;;4991524;28;20057;-64
2023/07/10 04:17:35;;;;;;;18.90;14.00;;;;;;;;;;4991995;28;20044;-64
2023/07/10 04:20:01;;;;;;;43.17;26.50;;;;;;;;;;4974341;28;20066;-64
2023/07/10 04:22:27;;;;;;;30.17;20.90;;;;;;;;;;4991441;28;20050;-64
2023/07/10 04:24:53;;;;;;;20.80;14.00;;;;;;;;;;4991453;28;20046;-63
2023/07/10 04:27:19;;;;;;;24.60;15.80;;;;;;;;;;4990672;28;20385;-64
2023/07/10 04:29:45;;;;;;;22.40;14.60;;;;;;;;;;4991411;28;20543;-64
2023/07/10 04:32:11;;;;;;;18.37;13.40;;;;;;;;;;4989977;28;20063;-64
2023/07/10 04:34:37;;;;;;;23.37;14.53;;;;;;;;;;4992033;28;20085;-63
2023/07/10 04:37:03;;;;;;;37.97;21.50;;;;;;;;;;4990220;28;20122;-64
2023/07/10 04:39:29;;;;;;;15.93;11.50;;;;;;;;;;4990132;28;20141;-64
2023/07/10 04:41:55;;;;;;;17.07;11.03;;;;;;;;;;4990143;28;20122;-64
2023/07/10 04:44:21;;;;;;;18.33;11.70;;;;;;;;;;4991512;28;20126;-64
2023/07/10 04:46:47;;;;;;;14.97;9.10;;;;;;;;;;4990524;28;20081;-64
2023/07/10 04:49:13;;;;;;;17.27;8.63;;;;;;;;;;4990498;28;20408;-64
2023/07/10 04:51:39;;;;;;;12.50;8.37;;;;;;;;;;4991384;28;20046;-64
2023/07/10 04:54:05;;;;;;;15.17;7.97;;;;;;;;;;4990701;28;20508;-64
2023/07/10 04:56:30;;;;;;;23.80;9.23;;;;;;;;;;4990574;28;20054;-64
2023/07/10 04:58:58;;;;;;;17.33;10.87;;;;;;;;;;4989712;28;20046;-64
2023/07/10 05:01:26;;;;;;;13.17;8.20;;;;;;;;;;4990872;28;20053;-64
2023/07/10 05:03:52;;;;;;;18.40;9.77;;;;;;;;;;4990905;28;20049;-63
2023/07/10 05:06:18;;;;;;;17.17;10.00;;;;;;;;;;4991103;28;20039;-64
2023/07/10 05:08:44;;;;;;;17.83;11.03;;;;;;;;;;4989554;28;20065;-64
2023/07/10 05:11:10;;;;;;;12.50;8.27;;;;;;;;;;4990265;28;20133;-64
2023/07/10 05:13:37;;;;;;;11.13;6.73;;;;;;;;;;4991222;28;20042;-64
2023/07/10 05:16:03;;;;;;;12.87;6.53;;;;;;;;;;4989138;28;20564;-64
2023/07/10 05:18:29;;;;;;;11.87;7.90;;;;;;;;;;4985468;28;20806;-64
2023/07/10 05:20:58;;;;;;;9.43;7.17;;;;;;;;;;4990839;28;20046;-64
2023/07/10 05:23:24;;;;;;;13.97;7.37;;;;;;;;;;4991195;28;20050;-64
2023/07/10 05:25:56;;;;;;;10.83;7.07;;;;;;;;;;4989707;28;20397;-64
2023/07/10 05:28:22;;;;;;;8.37;5.40;;;;;;;;;;4971211;28;20097;-64
2023/07/10 05:30:48;;;;;;;15.50;6.57;;;;;;;;;;4986472;28;20523;-64
2023/07/10 05:33:14;;;;;;;10.20;5.43;;;;;;;;;;4990991;28;20050;-64
2023/07/10 05:36:10;;;;;;;8.67;5.00;;;;;;;;;;4990606;28;20479;-64
2023/07/10 05:38:36;;;;;;;10.37;4.53;;;;;;;;;;4960489;28;20049;-64
2023/07/10 05:41:02;;;;;;;8.70;5.30;;;;;;;;;;4990301;28;20113;-65
2023/07/10 05:43:29;;;;;;;14.03;4.50;;;;;;;;;;4987026;28;20089;-65
2023/07/10 05:45:55;;;;;;;10.63;4.13;;;;;;;;;;4990207;28;20466;-64
2023/07/10 05:48:21;;;;;;;7.87;4.43;;;;;;;;;;4987492;28;20056;-64
2023/07/10 05:50:48;;;;;;;11.57;4.50;;;;;;;;;;4973862;28;20093;-65
2023/07/10 05:53:15;;;;;;;12.03;4.20;;;;;;;;;;4985565;28;20070;-64
2023/07/10 05:55:48;;;;;;;11.53;4.50;;;;;;;;;;4970586;28;20082;-64
2023/07/10 05:58:15;;;;;;;12.17;3.60;;;;;;;;;;4970020;28;20458;-64
2023/07/10 06:00:42;;;;;;;14.83;3.93;;;;;;;;;;4975132;28;20038;-64
2023/07/10 06:03:08;;;;;;;6.23;3.20;;;;;;;;;;4988868;28;20076;-65
2023/07/10 06:05:33;;;;;;;6.80;3.60;;;;;;;;;;4989668;28;20484;-65
2023/07/10 06:07:59;;;;;;;10.50;3.70;;;;;;;;;;4989174;28;20042;-64
2023/07/10 06:10:25;;;;;;;11.43;3.60;;;;;;;;;;4987275;28;20538;-64
2023/07/10 06:12:51;;;;;;;10.67;3.57;;;;;;;;;;4989643;28;20046;-64
2023/07/10 06:15:17;;;;;;;8.07;3.00;;;;;;;;;;4953516;28;20058;-64
2023/07/10 06:17:43;;;;;;;10.70;3.37;;;;;;;;;;4975785;28;20039;-64
2023/07/10 06:20:10;;;;;;;9.77;2.70;;;;;;;;;;4985681;28;20574;-64
2023/07/10 06:22:36;;;;;;;12.70;3.27;;;;;;;;;;4970449;28;20043;-64
2023/07/10 06:25:02;;;;;;;6.33;2.40;;;;;;;;;;4986193;28;20050;-64
2023/07/10 06:27:27;;;;;;;8.93;3.03;;;;;;;;;;4986789;28;20112;-64
2023/07/10 06:29:54;;;;;;;6.10;2.30;;;;;;;;;;4983220;28;20523;-64
2023/07/10 06:32:20;;;;;;;6.33;2.57;;;;;;;;;;4982092;28;20503;-64
2023/07/10 06:34:46;;;;;;;8.37;2.73;;;;;;;;;;4969500;28;20058;-64
2023/07/10 06:37:12;;;;;;;10.67;2.47;;;;;;;;;;4988448;28;20049;-64
2023/07/10 06:39:38;;;;;;;9.67;2.27;;;;;;;;;;4987304;28;20053;-64
2023/07/10 06:42:05;;;;;;;7.67;2.80;;;;;;;;;;4987991;28;20255;-64
2023/07/10 06:44:31;;;;;;;8.50;2.60;;;;;;;;;;4987348;28;20503;-65
2023/07/10 06:46:56;;;;;;;7.80;2.30;;;;;;;;;;4983739;28;20077;-64
2023/07/10 06:49:22;;;;;;;13.87;2.73;;;;;;;;;;4988917;28;20546;-64
2023/07/10 06:51:48;;;;;;;10.13;2.53;;;;;;;;;;4988117;28;20061;-64
2023/07/10 06:54:14;;;;;;;8.60;2.97;;;;;;;;;;4988104;28;20050;-64
2023/07/10 06:56:40;;;;;;;8.73;2.37;;;;;;;;;;4988259;28;20347;-64
2023/07/10 06:59:06;;;;;;;12.20;3.30;;;;;;;;;;4988442;28;20515;-64
2023/07/10 07:01:32;;;;;;;8.10;2.87;;;;;;;;;;4986970;28;20046;-64
2023/07/10 07:03:58;;;;;;;11.80;2.83;;;;;;;;;;4987452;28;20042;-64
2023/07/10 07:06:24;;;;;;;9.87;3.07;;;;;;;;;;4987855;28;20137;-64
2023/07/10 07:08:52;;;;;;;11.60;3.33;;;;;;;;;;4988827;28;20049;-64
2023/07/10 07:11:18;;;;;;;13.23;4.00;;;;;;;;;;4988925;28;20484;-65
2023/07/10 07:13:45;;;;;;;13.17;3.77;;;;;;;;;;4988055;28;20134;-64
2023/07/10 07:16:11;;;;;;;8.47;3.17;;;;;;;;;;4988890;28;20072;-64
2023/07/10 07:18:37;;;;;;;9.73;3.30;;;;;;;;;;4987765;28;20050;-64
2023/07/10 07:21:03;;;;;;;10.77;3.43;;;;;;;;;;4988877;28;20039;-64
2023/07/10 07:23:29;;;;;;;12.27;3.80;;;;;;;;;;4988703;28;20133;-65
2023/07/10 07:25:55;;;;;;;12.10;4.20;;;;;;;;;;4988012;28;20137;-64
2023/07/10 07:28:21;;;;;;;8.67;3.80;;;;;;;;;;4988538;28;20042;-64
2023/07/10 07:30:47;;;;;;;13.57;4.37;;;;;;;;;;4988175;28;20081;-64
2023/07/10 07:33:17;;;;;;;9.03;3.27;;;;;;;;;;4988537;28;20050;-64
2023/07/10 07:35:43;;;;;;;11.87;3.30;;;;;;;;;;4988299;28;20057;-64
2023/07/10 07:38:09;;;;;;;9.73;3.43;;;;;;;;;;4988060;28;20038;-62
2023/07/10 07:40:36;;;;;;;10.73;3.77;;;;;;;;;;4988231;28;20046;-62
2023/07/10 07:43:02;;;;;;;11.60;3.40;;;;;;;;;;4987903;28;20109;-62
2023/07/10 07:45:28;;;;;;;8.57;2.30;;;;;;;;;;4987924;28;20078;-61
2023/07/10 07:47:54;;;;;;;8.33;2.83;;;;;;;;;;4988511;28;20074;-62
2023/07/10 07:50:20;;;;;;;7.53;3.00;;;;;;;;;;4974807;28;20538;-62
2023/07/10 07:52:46;;;;;;;8.97;2.67;;;;;;;;;;4991925;28;20030;-61
2023/07/10 07:55:12;;;;;;;10.57;3.00;;;;;;;;;;4974137;28;20125;-61
2023/07/10 07:57:39;;;;;;;10.10;2.93;;;;;;;;;;4991959;28;20518;-61
2023/07/10 08:00:06;;;;;;;11.10;2.77;;;;;;;;;;4991970;28;20420;-61
2023/07/10 08:02:32;;;;;;;9.90;3.13;;;;;;;;;;4991471;28;20440;-61
2023/07/10 08:05:00;;;;;;;7.47;2.63;;;;;;;;;;4991819;28;20103;-62
2023/07/10 08:07:26;;;;;;;11.43;2.83;;;;;;;;;;4991912;28;20072;-61
2023/07/10 08:09:52;;;;;;;8.30;2.47;;;;;;;;;;4991788;28;20504;-60
2023/07/10 08:12:18;;;;;;;6.90;2.87;;;;;;;;;;4991655;28;20112;-60
2023/07/10 08:14:44;;;;;;;12.27;2.60;;;;;;;;;;4991435;28;20049;-60
2023/07/10 08:17:11;;;;;;;9.40;2.73;;;;;;;;;;4992009;28;20085;-61
2023/07/10 08:19:37;;;;;;;8.40;2.67;;;;;;;;;;4991974;28;20420;-60
2023/07/10 08:22:03;;;;;;;9.67;2.50;;;;;;;;;;4991222;28;20058;-60
2023/07/10 08:24:29;;;;;;;12.10;2.37;;;;;;;;;;4991910;28;20053;-61
2023/07/10 08:26:56;;;;;;;7.47;2.47;;;;;;;;;;4990872;28;20039;-61
2023/07/10 08:29:25;;;;;;;6.63;2.10;;;;;;;;;;4991484;28;20047;-61
2023/07/10 08:31:59;;;;;;;9.27;2.77;;;;;;;;;;4991074;28;20559;-61
2023/07/10 08:34:25;;;;;;;9.40;2.37;;;;;;;;;;4991440;28;20742;-61
2023/07/10 08:36:52;;;;;;;11.10;3.97;;;;;;;;;;4990784;28;20038;-60
2023/07/10 08:39:18;;;;;;;10.53;2.77;;;;;;;;;;4991429;28;20042;-60
2023/07/10 08:41:44;;;;;;;12.13;2.77;;;;;;;;;;4990972;28;20045;-61
2023/07/10 08:44:11;;;;;;;6.37;2.50;;;;;;;;;;4990983;28;20042;-60
2023/07/10 08:46:38;;;;;;;13.60;3.77;;;;;;;;;;4991390;28;20077;-60
2023/07/10 08:49:06;;;;;;;9.80;2.60;;;;;;;;;;4990949;28;20050;-60
2023/07/10 08:51:51;;;;;;;9.03;2.53;;;;;;;;;;4990857;28;20050;-60
2023/07/10 08:54:18;;;;;;;10.70;3.27;;;;;;;;;;4990562;28;20448;-60
2023/07/10 08:56:56;;;;;;;13.10;2.70;;;;;;;;;;4991046;28;20058;-60
2023/07/10 08:59:28;;;;;;;8.40;2.72;;;;;;;;;;4990290;28;20412;-60
2023/07/10 09:01:55;;;;;;;8.17;3.20;;;;;;;;;;4989839;28;20050;-60
2023/07/10 09:04:22;;;;;;;9.95;3.45;;;;;;;;;;4991066;28;20058;-60
2023/07/10 09:06:52;;;;;;;7.85;2.42;;;;;;;;;;4990951;28;20046;-60
2023/07/10 09:09:24;;;;;;;14.60;3.45;;;;;;;;;;4991140;28;20053;-59
2023/07/10 09:11:51;;;;;;;8.60;2.80;;;;;;;;;;4990848;28;20089;-60
2023/07/10 09:14:36;;;;;;;7.38;2.25;;;;;;;;;;4990297;28;20051;-60
2023/07/10 09:17:02;;;;;;;12.40;2.63;;;;;;;;;;4990469;28;20053;-59
2023/07/10 09:19:28;;;;;;;10.38;2.53;;;;;;;;;;4990585;28;20512;-59
2023/07/10 09:21:54;;;;;;;9.75;2.50;;;;;;;;;;4990263;28;20042;-58
2023/07/10 09:24:22;;;;;;;8.48;3.03;;;;;;;;;;4990538;28;20038;-59
2023/07/10 09:26:48;;;;;;;11.52;2.90;;;;;;;;;;4990375;28;20542;-59
2023/07/10 09:29:14;;;;;;;8.70;2.60;;;;;;;;;;4989910;28;20049;-58
2023/07/10 09:31:43;;;;;;;8.73;2.20;;;;;;;;;;4990201;28;20050;-58
2023/07/10 09:34:12;;;;;;;9.00;3.00;;;;;;;;;;4990413;28;20061;-59
2023/07/10 09:36:38;;;;;;;10.18;2.35;;;;;;;;;;4990254;28;20046;-58
2023/07/10 09:39:04;;;;;;;9.05;2.80;;;;;;;;;;4989619;28;20082;-58
2023/07/10 09:41:30;;;;;;;10.35;2.20;;;;;;;;;;4989856;28;20481;-58
2023/07/10 09:44:04;;;;;;;8.63;2.28;;;;;;;;;;4989762;28;20061;-59
2023/07/10 09:46:32;;;;;;;8.57;2.80;;;;;;;;;;4989986;28;20409;-59
2023/07/10 09:48:59;;;;;;;10.27;2.50;;;;;;;;;;4989086;28;20126;-59
2023/07/10 09:51:26;;;;;;;12.93;3.10;;;;;;;;;;4989995;28;20042;-59
2023/07/10 09:53:54;;;;;;;7.28;2.25;;;;;;;;;;4989310;28;20531;-58
2023/07/10 09:56:22;;;;;;;14.50;2.78;;;;;;;;;;4990129;28;20090;-59
2023/07/10 09:58:51;;;;;;;8.57;2.75;;;;;;;;;;4989843;28;20048;-59
2023/07/10 10:01:17;;;;;;;9.77;2.85;;;;;;;;;;4989406;28;20042;-59
2023/07/10 10:03:43;;;;;;;9.45;2.80;;;;;;;;;;4989576;28;20416;-59
2023/07/10 10:06:23;;;;;;;11.95;3.15;;;;;;;;;;4989731;28;20573;-59
2023/07/10 10:08:51;;;;;;;11.02;2.60;;;;;;;;;;4989640;28;20046;-58
2023/07/10 10:11:17;;;;;;;13.63;3.20;;;;;;;;;;4988753;28;20050;-59
2023/07/10 10:13:45;;;;;;;9.55;2.33;;;;;;;;;;4989325;28;20129;-59
2023/07/10 10:16:19;;;;;;;11.30;2.53;;;;;;;;;;4989868;28;20825;-59
2023/07/10 10:18:49;;;;;;;11.30;2.55;;;;;;;;;;4988565;28;20077;-59
2023/07/10 10:21:16;;;;;;;9.13;2.70;;;;;;;;;;4989741;28;20124;-59
2023/07/10 10:23:44;;;;;;;7.70;2.50;;;;;;;;;;4989254;28;20053;-59
2023/07/10 10:26:22;;;;;;;9.80;2.63;;;;;;;;;;4989298;28;20042;-59
2023/07/10 10:29:01;;;;;;;8.95;2.90;;;;;;;;;;4988965;28;20057;-59
2023/07/10 10:31:31;;;;;;;7.28;2.03;;;;;;;;;;4988547;28;20057;-59
2023/07/10 10:34:01;;;;;;;12.55;3.10;;;;;;;;;;4988850;28;20928;-59
2023/07/10 10:36:39;;;;;;;6.07;2.13;;;;;;;;;;4988847;28;20050;-59
2023/07/10 10:39:14;;;;;;;6.45;2.13;;;;;;;;;;4988896;28;20054;-59
2023/07/10 10:41:40;;;;;;;6.97;2.17;;;;;;;;;;4988911;28;20050;-59
2023/07/10 10:44:06;;;;;;;10.95;2.65;;;;;;;;;;4988906;28;20046;-60
2023/07/10 10:46:32;;;;;;;10.52;2.60;;;;;;;;;;4988966;28;20124;-59
2023/07/10 10:48:58;;;;;;;9.15;2.33;;;;;;;;;;4988631;28;20050;-60
2023/07/10 10:51:29;;;;;;;11.02;2.53;;;;;;;;;;4988925;28;20046;-59
2023/07/10 10:54:04;;;;;;;11.18;2.60;;;;;;;;;;4988337;28;20058;-59
2023/07/10 10:56:37;;;;;;;6.35;2.13;;;;;;;;;;4988846;28;20444;-59
2023/07/10 10:59:21;;;;;;;4.68;2.03;;;;;;;;;;4988872;28;20053;-59
2023/07/10 11:02:06;;;;;;;5.97;1.77;;;;;;;;;;4987094;28;20084;-59
2023/07/10 11:04:37;;;;;;;7.47;2.38;;;;;;;;;;4984185;28;20061;-59
2023/07/10 11:07:08;;;;;;;8.80;2.50;;;;;;;;;;4988551;28;20108;-59
2023/07/10 11:09:40;;;;;;;8.88;2.35;;;;;;;;;;4989314;28;20062;-60
2023/07/10 11:12:10;;;;;;;7.00;2.13;;;;;;;;;;4984666;28;20057;-59
2023/07/10 11:14:36;;;;;;;9.50;2.40;;;;;;;;;;4985673;28;20035;-60
2023/07/10 11:17:02;;;;;;;11.52;2.45;;;;;;;;;;4989287;28;20046;-59
2023/07/10 11:19:29;;;;;;;9.07;2.22;;;;;;;;;;4985887;28;20113;-60
2023/07/10 11:21:55;;;;;;;9.10;2.53;;;;;;;;;;4987885;28;20042;-59
2023/07/10 11:24:24;;;;;;;7.13;1.90;;;;;;;;;;4985040;28;21042;-60
2023/07/10 11:26:51;;;;;;;7.97;2.15;;;;;;;;;;4973763;28;20486;-60
2023/07/10 11:29:37;;;;;;;6.88;2.67;;;;;;;;;;4956527;28;20058;-60
2023/07/10 11:32:11;;;;;;;7.43;1.98;;;;;;;;;;4960527;28;20057;-60
2023/07/10 11:34:38;;;;;;;6.13;1.83;;;;;;;;;;4990037;28;20038;-60
2023/07/10 11:37:05;;;;;;;7.22;1.95;;;;;;;;;;4983474;28;20049;-60
2023/07/10 11:39:36;;;;;;;5.68;1.83;;;;;;;;;;4993338;28;20047;-60
2023/07/10 11:42:03;;;;;;;7.63;2.10;;;;;;;;;;4991834;28;20057;-60
2023/07/10 11:44:29;;;;;;;8.98;2.10;;;;;;;;;;4993022;28;20082;-59
2023/07/10 11:46:55;;;;;;;7.90;2.40;;;;;;;;;;4993012;28;20623;-60
2023/07/10 11:49:21;;;;;;;7.78;2.40;;;;;;;;;;4992011;28;20145;-60
2023/07/10 11:52:09;;;;;;;8.30;2.20;;;;;;;;;;4985979;28;20043;-60
2023/07/10 11:54:35;;;;;;;5.25;1.88;;;;;;;;;;4973051;28;20471;-59
2023/07/10 11:57:24;;;;;;;8.10;2.15;;;;;;;;;;4974647;28;20549;-60
2023/07/10 11:59:55;;;;;;;6.78;1.83;;;;;;;;;;4981496;28;20061;-60
2023/07/10 12:02:43;;;;;;;11.07;2.78;;;;;;;;;;4992497;28;20486;-60
2023/07/10 12:05:12;;;;;;;6.63;1.75;;;;;;;;;;4971789;28;20051;-60
2023/07/10 12:07:49;;;;;;;5.10;1.90;;;;;;;;;;4973120;28;20054;-60
2023/07/10 12:10:15;;;;;;;5.07;1.98;;;;;;;;;;4972836;28;20125;-60
2023/07/10 12:12:41;;;;;;;7.05;1.95;;;;;;;;;;4986375;28;20050;-61
2023/07/10 12:15:08;;;;;;;7.55;2.00;;;;;;;;;;4988025;28;20065;-61
2023/07/10 12:17:37;;;;;;;9.18;2.10;;;;;;;;;;4991557;28;20400;-61
2023/07/10 12:20:03;;;;;;;6.75;1.80;;;;;;;;;;4990046;28;20056;-61
2023/07/10 12:22:39;;;;;;;6.60;1.90;;;;;;;;;;4990551;28;20045;-60
2023/07/10 12:25:11;;;;;;;5.07;1.88;;;;;;;;;;4990268;28;20050;-60
2023/07/10 12:27:37;;;;;;;5.40;1.83;;;;;;;;;;4991439;28;20054;-60
2023/07/10 12:30:04;;;;;;;8.00;1.98;;;;;;;;;;4990810;28;20077;-60
2023/07/10 12:32:32;;;;;;;5.63;1.90;;;;;;;;;;4989932;28;20575;-60
2023/07/10 12:34:59;;;;;;;4.28;1.50;;;;;;;;;;4989193;28;20105;-60
2023/07/10 12:37:25;;;;;;;6.78;1.90;;;;;;;;;;4989426;28;20108;-60
2023/07/10 12:39:51;;;;;;;6.22;1.73;;;;;;;;;;4989711;28;20046;-60
2023/07/10 12:42:34;;;;;;;7.38;2.00;;;;;;;;;;4989808;28;20052;-60
2023/07/10 12:45:07;;;;;;;6.82;1.70;;;;;;;;;;4989436;28;20085;-60
2023/07/10 12:47:34;;;;;;;5.10;1.63;;;;;;;;;;4990826;28;20224;-60
2023/07/10 12:50:00;;;;;;;7.78;1.60;;;;;;;;;;4990984;28;20065;-60
2023/07/10 12:52:30;;;;;;;5.15;1.40;;;;;;;;;;4991197;28;20057;-60
2023/07/10 12:54:56;;;;;;;5.85;1.60;;;;;;;;;;4990986;28;20082;-60
2023/07/10 12:57:30;;;;;;;4.45;1.30;;;;;;;;;;4991215;28;20136;-60
2023/07/10 12:59:59;;;;;;;4.90;1.52;;;;;;;;;;4990645;28;20090;-60
2023/07/10 13:02:26;;;;;;;4.97;1.77;;;;;;;;;;4990705;28;20050;-60
2023/07/10 13:04:56;;;;;;;3.75;1.40;;;;;;;;;;4991158;28;20042;-61
2023/07/10 13:07:23;;;;;;;6.25;1.63;;;;;;;;;;4990801;28;20046;-60
2023/07/10 13:09:58;;;;;;;7.45;1.67;;;;;;;;;;4990532;28;20070;-61
2023/07/10 13:12:29;;;;;;;12.60;2.13;;;;;;;;;;4990609;28;20057;-60
2023/07/10 13:14:56;;;;;;;6.05;1.98;;;;;;;;;;4990602;28;20099;-61
2023/07/10 13:17:22;;;;;;;5.40;1.20;;;;;;;;;;4990672;28;20412;-61
2023/07/10 13:19:48;;;;;;;8.13;1.60;;;;;;;;;;4990105;28;20050;-61
2023/07/10 13:22:14;;;;;;;5.05;1.50;;;;;;;;;;4990486;28;20091;-61
2023/07/10 13:24:40;;;;;;;6.18;1.45;;;;;;;;;;4990330;28;20061;-61
2023/07/10 13:27:17;;;;;;;7.55;1.80;;;;;;;;;;4990605;28;20046;-61
2023/07/10 13:29:43;;;;;;;6.85;1.85;;;;;;;;;;4990214;28;20054;-61
2023/07/10 13:32:13;;;;;;;6.50;1.90;;;;;;;;;;4989492;28;20431;-61
2023/07/10 13:34:40;;;;;;;4.55;1.45;;;;;;;;;;4990378;28;20054;-61
2023/07/10 13:37:19;;;;;;;4.82;1.50;;;;;;;;;;4990263;28;20058;-61
2023/07/10 13:39:45;;;;;;;4.07;1.55;;;;;;;;;;4990071;28;20046;-61
2023/07/10 13:42:12;;;;;;;5.32;1.70;;;;;;;;;;4989965;28;20046;-63
2023/07/10 13:44:39;;;;;;;4.93;1.10;;;;;;;;;;4989422;28;20096;-61
2023/07/10 13:47:12;;;;;;;5.78;2.38;;;;;;;;;;4989535;28;20046;-62
2023/07/10 13:49:38;;;;;;;6.07;1.80;;;;;;;;;;4990469;28;20058;-62
2023/07/10 13:52:04;;;;;;;6.22;1.75;;;;;;;;;;4989960;28;20483;-61
2023/07/10 13:54:30;;;;;;;4.55;1.40;;;;;;;;;;4990203;28;20050;-61
2023/07/10 13:56:58;;;;;;;7.00;1.60;;;;;;;;;;4989541;28;20393;-61
2023/07/10 13:59:25;;;;;;;6.28;1.77;;;;;;;;;;4989556;28;20516;-61
2023/07/10 14:01:51;;;;;;;5.05;1.50;;;;;;;;;;4989898;28;20049;-61
2023/07/10 14:04:17;;;;;;;6.65;1.77;;;;;;;;;;4989564;28;20050;-61
2023/07/10 14:06:45;;;;;;;6.93;1.90;;;;;;;;;;4989925;28;20538;-61
2023/07/10 14:09:17;;;;;;;4.95;1.60;;;;;;;;;;4989547;28;20141;-61
2023/07/10 14:11:43;;;;;;;5.80;1.55;;;;;;;;;;4989522;28;20420;-61
2023/07/10 14:14:19;;;;;;;6.50;2.15;;;;;;;;;;4989410;28;20046;-61
2023/07/10 14:16:45;;;;;;;6.70;1.38;;;;;;;;;;4989442;28;20053;-61
2023/07/10 14:19:16;;;;;;;5.05;1.20;;;;;;;;;;4989588;28;20042;-61
2023/07/10 14:21:42;;;;;;;7.25;1.88;;;;;;;;;;4989265;28;20401;-61
2023/07/10 14:24:08;;;;;;;4.20;1.20;;;;;;;;;;4989044;28;20105;-61
2023/07/10 14:26:34;;;;;;;5.10;1.88;;;;;;;;;;4989558;28;20499;-61
2023/07/10 14:29:00;;;;;;;5.35;1.60;;;;;;;;;;4971767;28;20074;-61
2023/07/10 14:31:27;;;;;;;6.18;2.28;;;;;;;;;;4988957;28;20058;-61
2023/07/10 14:33:53;;;;;;;5.38;1.35;;;;;;;;;;4989208;28;20050;-61